sensor_id;sensor_type;location;lat;lon;timestamp;P1;durP1;ratioP1;P2;durP2;ratioP2
39020;SDS011;25188;51.958;5.842;2023-05-20T00:01:32;5.38;;;1.92;;
39020;SDS011;25188;51.958;5.842;2023-05-20T00:03:58;7.00;;;2.30;;
39020;SDS011;25188;51.958;5.842;2023-05-20T00:06:23;9.48;;;2.15;;
39020;SDS011;25188;51.958;5.842;2023-05-20T00:08:49;9.80;;;2.30;;
39020;SDS011;25188;51.958;5.842;2023-05-20T00:11:15;7.65;;;3.25;;
39020;SDS011;25188;51.958;5.842;2023-05-20T00:13:40;7.30;;;2.20;;
39020;SDS011;25188;51.958;5.842;2023-05-20T00:16:06;7.95;;;3.13;;
39020;SDS011;25188;51.958;5.842;2023-05-20T00:18:32;7.07;;;2.15;;
39020;SDS011;25188;51.958;5.842;2023-05-20T00:20:57;6.13;;;2.00;;
39020;SDS011;25188;51.958;5.842;2023-05-20T00:23:23;7.35;;;2.65;;
39020;SDS011;25188;51.958;5.842;2023-05-20T00:25:49;6.57;;;2.40;;
39020;SDS011;25188;51.958;5.842;2023-05-20T00:28:14;7.20;;;2.22;;
39020;SDS011;25188;51.958;5.842;2023-05-20T00:30:40;6.00;;;2.30;;
39020;SDS011;25188;51.958;5.842;2023-05-20T00:33:06;4.75;;;2.00;;
39020;SDS011;25188;51.958;5.842;2023-05-20T00:35:32;11.25;;;2.78;;
39020;SDS011;25188;51.958;5.842;2023-05-20T00:37:58;7.97;;;2.33;;
39020;SDS011;25188;51.958;5.842;2023-05-20T00:40:23;5.70;;;1.95;;
39020;SDS011;25188;51.958;5.842;2023-05-20T00:42:50;8.63;;;2.45;;
39020;SDS011;25188;51.958;5.842;2023-05-20T00:45:16;6.82;;;2.67;;
39020;SDS011;25188;51.958;5.842;2023-05-20T00:47:41;11.63;;;3.05;;
39020;SDS011;25188;51.958;5.842;2023-05-20T00:50:08;5.32;;;1.95;;
39020;SDS011;25188;51.958;5.842;2023-05-20T00:52:34;4.88;;;2.05;;
39020;SDS011;25188;51.958;5.842;2023-05-20T00:55:01;7.07;;;2.15;;
39020;SDS011;25188;51.958;5.842;2023-05-20T00:57:27;7.53;;;2.60;;
39020;SDS011;25188;51.958;5.842;2023-05-20T00:59:53;10.55;;;2.70;;
39020;SDS011;25188;51.958;5.842;2023-05-20T01:02:19;7.20;;;2.17;;
39020;SDS011;25188;51.958;5.842;2023-05-20T01:04:45;5.40;;;2.15;;
39020;SDS011;25188;51.958;5.842;2023-05-20T01:07:12;6.85;;;2.53;;
39020;SDS011;25188;51.958;5.842;2023-05-20T01:09:39;8.98;;;3.15;;
39020;SDS011;25188;51.958;5.842;2023-05-20T01:12:08;7.45;;;2.70;;
39020;SDS011;25188;51.958;5.842;2023-05-20T01:14:52;10.10;;;2.70;;
39020;SDS011;25188;51.958;5.842;2023-05-20T01:17:24;7.65;;;2.20;;
39020;SDS011;25188;51.958;5.842;2023-05-20T01:19:51;7.75;;;2.45;;
39020;SDS011;25188;51.958;5.842;2023-05-20T01:24:49;9.90;;;2.65;;
39020;SDS011;25188;51.958;5.842;2023-05-20T01:27:18;7.47;;;2.53;;
39020;SDS011;25188;51.958;5.842;2023-05-20T01:29:46;8.57;;;2.72;;
39020;SDS011;25188;51.958;5.842;2023-05-20T01:32:24;8.60;;;3.13;;
39020;SDS011;25188;51.958;5.842;2023-05-20T01:34:52;6.82;;;2.75;;
39020;SDS011;25188;51.958;5.842;2023-05-20T01:37:18;12.60;;;3.10;;
39020;SDS011;25188;51.958;5.842;2023-05-20T01:39:46;9.45;;;3.22;;
39020;SDS011;25188;51.958;5.842;2023-05-20T01:42:14;7.10;;;2.55;;
39020;SDS011;25188;51.958;5.842;2023-05-20T01:44:40;8.30;;;3.03;;
39020;SDS011;25188;51.958;5.842;2023-05-20T01:47:07;7.55;;;2.60;;
39020;SDS011;25188;51.958;5.842;2023-05-20T01:49:32;5.45;;;2.53;;
39020;SDS011;25188;51.958;5.842;2023-05-20T01:51:58;7.88;;;2.75;;
39020;SDS011;25188;51.958;5.842;2023-05-20T01:54:24;7.40;;;2.63;;
39020;SDS011;25188;51.958;5.842;2023-05-20T01:56:50;10.65;;;2.97;;
39020;SDS011;25188;51.958;5.842;2023-05-20T01:59:15;9.35;;;3.40;;
39020;SDS011;25188;51.958;5.842;2023-05-20T02:01:41;7.43;;;2.10;;
39020;SDS011;25188;51.958;5.842;2023-05-20T02:04:07;8.07;;;3.03;;
39020;SDS011;25188;51.958;5.842;2023-05-20T02:06:33;9.88;;;3.10;;
39020;SDS011;25188;51.958;5.842;2023-05-20T02:08:58;8.23;;;2.53;;
39020;SDS011;25188;51.958;5.842;2023-05-20T02:11:24;4.72;;;1.92;;
39020;SDS011;25188;51.958;5.842;2023-05-20T02:13:50;8.52;;;2.15;;
39020;SDS011;25188;51.958;5.842;2023-05-20T02:16:16;7.93;;;2.60;;
39020;SDS011;25188;51.958;5.842;2023-05-20T02:18:41;7.47;;;2.42;;
39020;SDS011;25188;51.958;5.842;2023-05-20T02:21:08;6.13;;;2.15;;
39020;SDS011;25188;51.958;5.842;2023-05-20T02:23:33;11.30;;;3.83;;
39020;SDS011;25188;51.958;5.842;2023-05-20T02:25:59;7.28;;;2.20;;
39020;SDS011;25188;51.958;5.842;2023-05-20T02:28:25;7.90;;;2.75;;
39020;SDS011;25188;51.958;5.842;2023-05-20T02:30:51;6.47;;;2.58;;
39020;SDS011;25188;51.958;5.842;2023-05-20T02:33:17;8.43;;;2.60;;
39020;SDS011;25188;51.958;5.842;2023-05-20T02:35:43;7.40;;;2.55;;
39020;SDS011;25188;51.958;5.842;2023-05-20T02:38:09;6.10;;;2.17;;
39020;SDS011;25188;51.958;5.842;2023-05-20T02:40:36;6.10;;;2.35;;
39020;SDS011;25188;51.958;5.842;2023-05-20T02:43:01;8.50;;;3.15;;
39020;SDS011;25188;51.958;5.842;2023-05-20T02:45:27;9.45;;;3.38;;
39020;SDS011;25188;51.958;5.842;2023-05-20T02:47:53;11.20;;;3.40;;
39020;SDS011;25188;51.958;5.842;2023-05-20T02:50:18;5.53;;;2.35;;
39020;SDS011;25188;51.958;5.842;2023-05-20T02:52:44;8.95;;;3.00;;
39020;SDS011;25188;51.958;5.842;2023-05-20T02:55:10;9.02;;;3.15;;
39020;SDS011;25188;51.958;5.842;2023-05-20T02:57:36;7.35;;;2.95;;
39020;SDS011;25188;51.958;5.842;2023-05-20T03:00:11;10.27;;;3.22;;
39020;SDS011;25188;51.958;5.842;2023-05-20T03:02:37;7.53;;;3.10;;
39020;SDS011;25188;51.958;5.842;2023-05-20T03:05:03;9.52;;;2.70;;
39020;SDS011;25188;51.958;5.842;2023-05-20T03:07:29;8.57;;;2.92;;
39020;SDS011;25188;51.958;5.842;2023-05-20T03:09:56;7.07;;;2.55;;
39020;SDS011;25188;51.958;5.842;2023-05-20T03:12:23;7.28;;;2.80;;
39020;SDS011;25188;51.958;5.842;2023-05-20T03:14:50;5.95;;;2.55;;
39020;SDS011;25188;51.958;5.842;2023-05-20T03:17:19;6.72;;;2.67;;
39020;SDS011;25188;51.958;5.842;2023-05-20T03:19:45;5.22;;;2.05;;
39020;SDS011;25188;51.958;5.842;2023-05-20T03:22:11;8.90;;;2.80;;
39020;SDS011;25188;51.958;5.842;2023-05-20T03:24:36;8.35;;;2.53;;
39020;SDS011;25188;51.958;5.842;2023-05-20T03:27:02;10.40;;;3.15;;
39020;SDS011;25188;51.958;5.842;2023-05-20T03:29:28;7.10;;;2.83;;
39020;SDS011;25188;51.958;5.842;2023-05-20T03:31:53;8.25;;;2.88;;
39020;SDS011;25188;51.958;5.842;2023-05-20T03:34:19;10.38;;;3.75;;
39020;SDS011;25188;51.958;5.842;2023-05-20T03:36:45;6.97;;;2.40;;
39020;SDS011;25188;51.958;5.842;2023-05-20T03:39:10;8.35;;;2.05;;
39020;SDS011;25188;51.958;5.842;2023-05-20T03:41:36;8.38;;;2.78;;
39020;SDS011;25188;51.958;5.842;2023-05-20T03:44:02;9.38;;;2.70;;
39020;SDS011;25188;51.958;5.842;2023-05-20T03:46:28;6.00;;;2.70;;
39020;SDS011;25188;51.958;5.842;2023-05-20T03:48:55;7.72;;;2.92;;
39020;SDS011;25188;51.958;5.842;2023-05-20T03:51:20;6.55;;;2.50;;
39020;SDS011;25188;51.958;5.842;2023-05-20T03:53:46;6.35;;;2.75;;
39020;SDS011;25188;51.958;5.842;2023-05-20T03:56:12;7.32;;;2.40;;
39020;SDS011;25188;51.958;5.842;2023-05-20T03:58:37;5.63;;;2.20;;
39020;SDS011;25188;51.958;5.842;2023-05-20T04:01:03;7.03;;;1.90;;
39020;SDS011;25188;51.958;5.842;2023-05-20T04:03:29;6.13;;;2.28;;
39020;SDS011;25188;51.958;5.842;2023-05-20T04:05:55;7.45;;;2.58;;
39020;SDS011;25188;51.958;5.842;2023-05-20T04:08:21;8.75;;;2.97;;
39020;SDS011;25188;51.958;5.842;2023-05-20T04:10:49;6.75;;;2.42;;
39020;SDS011;25188;51.958;5.842;2023-05-20T04:13:15;6.60;;;2.42;;
39020;SDS011;25188;51.958;5.842;2023-05-20T04:15:41;6.82;;;2.33;;
39020;SDS011;25188;51.958;5.842;2023-05-20T04:18:07;5.78;;;2.63;;
39020;SDS011;25188;51.958;5.842;2023-05-20T04:20:32;10.48;;;3.65;;
39020;SDS011;25188;51.958;5.842;2023-05-20T04:22:58;10.63;;;3.42;;
39020;SDS011;25188;51.958;5.842;2023-05-20T04:25:24;4.93;;;2.33;;
39020;SDS011;25188;51.958;5.842;2023-05-20T04:27:50;9.00;;;2.70;;
39020;SDS011;25188;51.958;5.842;2023-05-20T04:30:18;9.30;;;2.53;;
39020;SDS011;25188;51.958;5.842;2023-05-20T04:32:45;8.52;;;2.65;;
39020;SDS011;25188;51.958;5.842;2023-05-20T04:35:12;5.75;;;2.20;;
39020;SDS011;25188;51.958;5.842;2023-05-20T04:37:38;7.57;;;2.83;;
39020;SDS011;25188;51.958;5.842;2023-05-20T04:40:04;8.07;;;2.28;;
39020;SDS011;25188;51.958;5.842;2023-05-20T04:42:31;6.20;;;2.38;;
39020;SDS011;25188;51.958;5.842;2023-05-20T04:44:57;10.82;;;2.78;;
39020;SDS011;25188;51.958;5.842;2023-05-20T04:47:25;4.50;;;2.13;;
39020;SDS011;25188;51.958;5.842;2023-05-20T04:49:52;6.15;;;2.35;;
39020;SDS011;25188;51.958;5.842;2023-05-20T04:52:21;7.25;;;2.80;;
39020;SDS011;25188;51.958;5.842;2023-05-20T04:54:50;5.55;;;2.35;;
39020;SDS011;25188;51.958;5.842;2023-05-20T04:57:16;9.98;;;3.03;;
39020;SDS011;25188;51.958;5.842;2023-05-20T04:59:45;4.70;;;2.05;;
39020;SDS011;25188;51.958;5.842;2023-05-20T05:02:11;7.18;;;2.55;;
39020;SDS011;25188;51.958;5.842;2023-05-20T05:04:36;6.18;;;2.63;;
39020;SDS011;25188;51.958;5.842;2023-05-20T05:07:02;7.05;;;2.88;;
39020;SDS011;25188;51.958;5.842;2023-05-20T05:09:29;7.90;;;2.25;;
39020;SDS011;25188;51.958;5.842;2023-05-20T05:11:55;5.53;;;2.13;;
39020;SDS011;25188;51.958;5.842;2023-05-20T05:14:20;6.65;;;3.17;;
39020;SDS011;25188;51.958;5.842;2023-05-20T05:16:47;7.60;;;2.97;;
39020;SDS011;25188;51.958;5.842;2023-05-20T05:19:13;6.15;;;2.00;;
39020;SDS011;25188;51.958;5.842;2023-05-20T05:21:39;4.75;;;2.00;;
39020;SDS011;25188;51.958;5.842;2023-05-20T05:24:04;7.95;;;2.40;;
39020;SDS011;25188;51.958;5.842;2023-05-20T05:26:30;4.93;;;2.20;;
39020;SDS011;25188;51.958;5.842;2023-05-20T05:28:56;7.55;;;2.63;;
39020;SDS011;25188;51.958;5.842;2023-05-20T05:31:21;6.78;;;2.30;;
39020;SDS011;25188;51.958;5.842;2023-05-20T05:33:47;7.72;;;2.95;;
39020;SDS011;25188;51.958;5.842;2023-05-20T05:36:13;7.75;;;2.70;;
39020;SDS011;25188;51.958;5.842;2023-05-20T05:38:39;6.28;;;2.45;;
39020;SDS011;25188;51.958;5.842;2023-05-20T05:41:04;6.78;;;2.35;;
39020;SDS011;25188;51.958;5.842;2023-05-20T05:43:30;6.60;;;2.13;;
39020;SDS011;25188;51.958;5.842;2023-05-20T05:45:56;7.32;;;2.42;;
39020;SDS011;25188;51.958;5.842;2023-05-20T05:48:21;5.78;;;2.38;;
39020;SDS011;25188;51.958;5.842;2023-05-20T05:50:47;5.82;;;2.60;;
39020;SDS011;25188;51.958;5.842;2023-05-20T05:53:13;8.10;;;2.03;;
39020;SDS011;25188;51.958;5.842;2023-05-20T05:55:38;3.92;;;1.73;;
39020;SDS011;25188;51.958;5.842;2023-05-20T05:58:04;3.42;;;1.77;;
39020;SDS011;25188;51.958;5.842;2023-05-20T06:00:29;5.22;;;1.90;;
39020;SDS011;25188;51.958;5.842;2023-05-20T06:02:55;4.03;;;1.70;;
39020;SDS011;25188;51.958;5.842;2023-05-20T06:05:21;5.43;;;2.47;;
39020;SDS011;25188;51.958;5.842;2023-05-20T06:07:46;5.13;;;1.88;;
39020;SDS011;25188;51.958;5.842;2023-05-20T06:10:12;9.57;;;2.67;;
39020;SDS011;25188;51.958;5.842;2023-05-20T06:12:38;7.93;;;2.20;;
39020;SDS011;25188;51.958;5.842;2023-05-20T06:15:03;7.35;;;2.70;;
39020;SDS011;25188;51.958;5.842;2023-05-20T06:17:30;6.28;;;1.95;;
39020;SDS011;25188;51.958;5.842;2023-05-20T06:19:56;6.88;;;2.28;;
39020;SDS011;25188;51.958;5.842;2023-05-20T06:22:22;6.88;;;2.72;;
39020;SDS011;25188;51.958;5.842;2023-05-20T06:24:47;4.55;;;1.98;;
39020;SDS011;25188;51.958;5.842;2023-05-20T06:27:13;6.10;;;1.90;;
39020;SDS011;25188;51.958;5.842;2023-05-20T06:29:38;6.40;;;1.90;;
39020;SDS011;25188;51.958;5.842;2023-05-20T06:32:04;5.68;;;1.67;;
39020;SDS011;25188;51.958;5.842;2023-05-20T06:34:30;10.48;;;2.08;;
39020;SDS011;25188;51.958;5.842;2023-05-20T06:36:56;3.63;;;1.85;;
39020;SDS011;25188;51.958;5.842;2023-05-20T06:39:22;3.63;;;1.67;;
39020;SDS011;25188;51.958;5.842;2023-05-20T06:41:48;5.95;;;1.95;;
39020;SDS011;25188;51.958;5.842;2023-05-20T06:44:16;5.13;;;1.83;;
39020;SDS011;25188;51.958;5.842;2023-05-20T06:46:41;7.47;;;1.80;;
39020;SDS011;25188;51.958;5.842;2023-05-20T06:49:07;6.65;;;1.48;;
39020;SDS011;25188;51.958;5.842;2023-05-20T06:51:32;3.63;;;1.30;;
39020;SDS011;25188;51.958;5.842;2023-05-20T06:53:58;5.13;;;1.40;;
39020;SDS011;25188;51.958;5.842;2023-05-20T06:56:24;6.75;;;1.75;;
39020;SDS011;25188;51.958;5.842;2023-05-20T06:58:49;5.70;;;1.80;;
39020;SDS011;25188;51.958;5.842;2023-05-20T07:01:15;7.68;;;1.88;;
39020;SDS011;25188;51.958;5.842;2023-05-20T07:03:40;4.57;;;1.58;;
39020;SDS011;25188;51.958;5.842;2023-05-20T07:06:08;3.00;;;1.30;;
39020;SDS011;25188;51.958;5.842;2023-05-20T07:08:34;6.85;;;1.77;;
39020;SDS011;25188;51.958;5.842;2023-05-20T07:10:59;4.95;;;1.63;;
39020;SDS011;25188;51.958;5.842;2023-05-20T07:13:25;4.07;;;1.13;;
39020;SDS011;25188;51.958;5.842;2023-05-20T07:15:50;3.58;;;1.45;;
39020;SDS011;25188;51.958;5.842;2023-05-20T07:18:16;4.53;;;1.77;;
39020;SDS011;25188;51.958;5.842;2023-05-20T07:20:43;2.95;;;1.38;;
39020;SDS011;25188;51.958;5.842;2023-05-20T07:23:08;4.03;;;1.45;;
39020;SDS011;25188;51.958;5.842;2023-05-20T07:25:34;4.07;;;1.25;;
39020;SDS011;25188;51.958;5.842;2023-05-20T07:28:00;7.75;;;1.80;;
39020;SDS011;25188;51.958;5.842;2023-05-20T07:30:26;3.20;;;1.35;;
39020;SDS011;25188;51.958;5.842;2023-05-20T07:32:52;5.88;;;1.70;;
39020;SDS011;25188;51.958;5.842;2023-05-20T07:35:17;4.05;;;1.30;;
39020;SDS011;25188;51.958;5.842;2023-05-20T07:37:43;4.35;;;1.52;;
39020;SDS011;25188;51.958;5.842;2023-05-20T07:40:08;5.45;;;1.80;;
39020;SDS011;25188;51.958;5.842;2023-05-20T07:42:34;3.50;;;1.20;;
39020;SDS011;25188;51.958;5.842;2023-05-20T07:45:00;5.47;;;1.95;;
39020;SDS011;25188;51.958;5.842;2023-05-20T07:47:26;5.47;;;1.73;;
39020;SDS011;25188;51.958;5.842;2023-05-20T07:49:52;4.38;;;1.55;;
39020;SDS011;25188;51.958;5.842;2023-05-20T07:52:17;6.55;;;1.60;;
39020;SDS011;25188;51.958;5.842;2023-05-20T07:54:43;4.50;;;1.08;;
39020;SDS011;25188;51.958;5.842;2023-05-20T07:57:08;5.65;;;1.50;;
39020;SDS011;25188;51.958;5.842;2023-05-20T07:59:34;3.80;;;1.48;;
39020;SDS011;25188;51.958;5.842;2023-05-20T08:02:00;4.78;;;1.88;;
39020;SDS011;25188;51.958;5.842;2023-05-20T08:04:26;3.63;;;1.08;;
39020;SDS011;25188;51.958;5.842;2023-05-20T08:06:51;4.50;;;1.15;;
39020;SDS011;25188;51.958;5.842;2023-05-20T08:09:17;4.95;;;1.40;;
39020;SDS011;25188;51.958;5.842;2023-05-20T08:11:43;2.20;;;0.90;;
39020;SDS011;25188;51.958;5.842;2023-05-20T08:14:09;3.22;;;1.27;;
39020;SDS011;25188;51.958;5.842;2023-05-20T08:16:35;6.32;;;1.63;;
39020;SDS011;25188;51.958;5.842;2023-05-20T08:19:01;5.13;;;1.38;;
39020;SDS011;25188;51.958;5.842;2023-05-20T08:21:27;2.70;;;1.10;;
39020;SDS011;25188;51.958;5.842;2023-05-20T08:23:52;3.40;;;1.05;;
39020;SDS011;25188;51.958;5.842;2023-05-20T08:26:18;4.63;;;1.08;;
39020;SDS011;25188;51.958;5.842;2023-05-20T08:28:44;3.60;;;1.30;;
39020;SDS011;25188;51.958;5.842;2023-05-20T08:31:10;5.43;;;1.45;;
39020;SDS011;25188;51.958;5.842;2023-05-20T08:33:36;3.72;;;0.90;;
39020;SDS011;25188;51.958;5.842;2023-05-20T08:36:02;4.13;;;1.23;;
39020;SDS011;25188;51.958;5.842;2023-05-20T08:38:27;3.15;;;1.27;;
39020;SDS011;25188;51.958;5.842;2023-05-20T08:40:56;6.72;;;1.30;;
39020;SDS011;25188;51.958;5.842;2023-05-20T08:43:22;2.88;;;1.00;;
39020;SDS011;25188;51.958;5.842;2023-05-20T08:45:48;4.22;;;1.08;;
39020;SDS011;25188;51.958;5.842;2023-05-20T08:48:16;3.40;;;1.10;;
39020;SDS011;25188;51.958;5.842;2023-05-20T08:50:43;5.75;;;0.98;;
39020;SDS011;25188;51.958;5.842;2023-05-20T08:53:13;5.70;;;1.40;;
39020;SDS011;25188;51.958;5.842;2023-05-20T08:55:43;5.03;;;1.30;;
39020;SDS011;25188;51.958;5.842;2023-05-20T08:58:11;3.72;;;1.10;;
39020;SDS011;25188;51.958;5.842;2023-05-20T09:00:39;4.88;;;1.20;;
39020;SDS011;25188;51.958;5.842;2023-05-20T09:03:05;2.92;;;1.15;;
39020;SDS011;25188;51.958;5.842;2023-05-20T09:05:32;3.40;;;1.15;;
39020;SDS011;25188;51.958;5.842;2023-05-20T09:08:05;5.97;;;1.08;;
39020;SDS011;25188;51.958;5.842;2023-05-20T09:10:32;3.13;;;1.13;;
39020;SDS011;25188;51.958;5.842;2023-05-20T09:13:01;5.57;;;1.25;;
39020;SDS011;25188;51.958;5.842;2023-05-20T09:15:28;6.88;;;0.90;;
39020;SDS011;25188;51.958;5.842;2023-05-20T09:18:04;3.40;;;0.90;;
39020;SDS011;25188;51.958;5.842;2023-05-20T09:23:01;2.03;;;0.90;;
39020;SDS011;25188;51.958;5.842;2023-05-20T09:25:28;3.63;;;0.80;;
39020;SDS011;25188;51.958;5.842;2023-05-20T09:27:54;4.43;;;0.82;;
39020;SDS011;25188;51.958;5.842;2023-05-20T09:30:20;3.22;;;0.90;;
39020;SDS011;25188;51.958;5.842;2023-05-20T09:32:53;2.45;;;0.70;;
39020;SDS011;25188;51.958;5.842;2023-05-20T09:35:20;2.25;;;0.80;;
39020;SDS011;25188;51.958;5.842;2023-05-20T09:37:47;2.33;;;0.80;;
39020;SDS011;25188;51.958;5.842;2023-05-20T09:40:23;3.22;;;0.90;;
39020;SDS011;25188;51.958;5.842;2023-05-20T09:43:02;3.20;;;0.70;;
39020;SDS011;25188;51.958;5.842;2023-05-20T09:45:29;2.45;;;0.90;;
39020;SDS011;25188;51.958;5.842;2023-05-20T09:47:55;4.32;;;0.88;;
39020;SDS011;25188;51.958;5.842;2023-05-20T09:50:22;3.40;;;0.80;;
39020;SDS011;25188;51.958;5.842;2023-05-20T09:52:51;2.92;;;0.80;;
39020;SDS011;25188;51.958;5.842;2023-05-20T09:55:18;4.57;;;1.02;;
39020;SDS011;25188;51.958;5.842;2023-05-20T09:57:46;2.25;;;0.75;;
39020;SDS011;25188;51.958;5.842;2023-05-20T10:00:13;2.72;;;0.90;;
39020;SDS011;25188;51.958;5.842;2023-05-20T10:02:48;4.40;;;0.88;;
39020;SDS011;25188;51.958;5.842;2023-05-20T10:05:16;4.13;;;0.95;;
39020;SDS011;25188;51.958;5.842;2023-05-20T10:08:02;5.15;;;0.80;;
39020;SDS011;25188;51.958;5.842;2023-05-20T10:16:35;3.75;;;1.10;;
39020;SDS011;25188;51.958;5.842;2023-05-20T10:21:31;5.35;;;1.27;;
39020;SDS011;25188;51.958;5.842;2023-05-20T10:24:06;2.63;;;0.85;;
39020;SDS011;25188;51.958;5.842;2023-05-20T10:26:36;5.13;;;1.50;;
39020;SDS011;25188;51.958;5.842;2023-05-20T10:29:15;4.55;;;1.10;;
39020;SDS011;25188;51.958;5.842;2023-05-20T10:31:48;6.13;;;1.10;;
39020;SDS011;25188;51.958;5.842;2023-05-20T10:34:15;2.22;;;0.90;;
39020;SDS011;25188;51.958;5.842;2023-05-20T10:37:07;4.15;;;0.70;;
39020;SDS011;25188;51.958;5.842;2023-05-20T10:39:31;4.68;;;0.88;;
39020;SDS011;25188;51.958;5.842;2023-05-20T10:42:08;4.50;;;0.73;;
39020;SDS011;25188;51.958;5.842;2023-05-20T10:47:08;3.43;;;0.73;;
39020;SDS011;25188;51.958;5.842;2023-05-20T10:49:34;2.10;;;0.80;;
39020;SDS011;25188;51.958;5.842;2023-05-20T10:52:05;2.63;;;1.10;;
39020;SDS011;25188;51.958;5.842;2023-05-20T10:54:34;1.40;;;0.63;;
39020;SDS011;25188;51.958;5.842;2023-05-20T10:57:04;2.45;;;0.60;;
39020;SDS011;25188;51.958;5.842;2023-05-20T10:59:33;2.33;;;0.60;;
39020;SDS011;25188;51.958;5.842;2023-05-20T11:02:00;1.85;;;0.60;;
39020;SDS011;25188;51.958;5.842;2023-05-20T11:04:27;2.30;;;0.90;;
39020;SDS011;25188;51.958;5.842;2023-05-20T11:06:54;4.70;;;0.85;;
39020;SDS011;25188;51.958;5.842;2023-05-20T11:09:20;3.88;;;0.90;;
39020;SDS011;25188;51.958;5.842;2023-05-20T11:11:46;6.90;;;1.10;;
39020;SDS011;25188;51.958;5.842;2023-05-20T11:14:13;5.32;;;0.98;;
39020;SDS011;25188;51.958;5.842;2023-05-20T11:16:39;3.40;;;0.80;;
39020;SDS011;25188;51.958;5.842;2023-05-20T11:19:06;2.15;;;0.70;;
39020;SDS011;25188;51.958;5.842;2023-05-20T11:21:33;4.47;;;0.70;;
39020;SDS011;25188;51.958;5.842;2023-05-20T11:23:58;4.00;;;0.70;;
39020;SDS011;25188;51.958;5.842;2023-05-20T11:26:24;3.10;;;0.80;;
39020;SDS011;25188;51.958;5.842;2023-05-20T11:28:50;1.48;;;0.50;;
39020;SDS011;25188;51.958;5.842;2023-05-20T11:31:16;1.85;;;0.52;;
39020;SDS011;25188;51.958;5.842;2023-05-20T11:33:42;1.98;;;0.60;;
39020;SDS011;25188;51.958;5.842;2023-05-20T11:36:08;3.05;;;0.70;;
39020;SDS011;25188;51.958;5.842;2023-05-20T11:38:35;1.90;;;0.60;;
39020;SDS011;25188;51.958;5.842;2023-05-20T11:41:01;2.83;;;0.70;;
39020;SDS011;25188;51.958;5.842;2023-05-20T11:43:27;1.95;;;0.57;;
39020;SDS011;25188;51.958;5.842;2023-05-20T11:45:53;1.48;;;0.60;;
39020;SDS011;25188;51.958;5.842;2023-05-20T11:48:22;2.97;;;0.70;;
39020;SDS011;25188;51.958;5.842;2023-05-20T11:50:48;1.67;;;0.63;;
39020;SDS011;25188;51.958;5.842;2023-05-20T11:53:14;1.45;;;0.65;;
39020;SDS011;25188;51.958;5.842;2023-05-20T12:00:50;5.22;;;0.55;;
39020;SDS011;25188;51.958;5.842;2023-05-20T12:03:15;1.75;;;0.75;;
39020;SDS011;25188;51.958;5.842;2023-05-20T12:05:42;1.73;;;0.50;;
39020;SDS011;25188;51.958;5.842;2023-05-20T12:08:08;3.58;;;0.75;;
39020;SDS011;25188;51.958;5.842;2023-05-20T12:10:33;1.40;;;0.60;;
39020;SDS011;25188;51.958;5.842;2023-05-20T12:13:01;2.10;;;0.60;;
39020;SDS011;25188;51.958;5.842;2023-05-20T12:15:27;2.45;;;0.60;;
39020;SDS011;25188;51.958;5.842;2023-05-20T12:17:53;2.15;;;0.57;;
39020;SDS011;25188;51.958;5.842;2023-05-20T12:20:22;1.63;;;0.57;;
39020;SDS011;25188;51.958;5.842;2023-05-20T12:22:49;3.22;;;0.50;;
39020;SDS011;25188;51.958;5.842;2023-05-20T12:25:16;1.08;;;0.50;;
39020;SDS011;25188;51.958;5.842;2023-05-20T12:27:43;1.50;;;0.50;;
39020;SDS011;25188;51.958;5.842;2023-05-20T12:30:17;3.42;;;0.80;;
39020;SDS011;25188;51.958;5.842;2023-05-20T12:32:44;2.25;;;0.60;;
39020;SDS011;25188;51.958;5.842;2023-05-20T12:35:10;1.38;;;0.35;;
39020;SDS011;25188;51.958;5.842;2023-05-20T12:37:37;1.30;;;0.55;;
39020;SDS011;25188;51.958;5.842;2023-05-20T12:40:05;3.03;;;0.57;;
39020;SDS011;25188;51.958;5.842;2023-05-20T12:42:33;1.90;;;0.50;;
39020;SDS011;25188;51.958;5.842;2023-05-20T12:45:03;4.07;;;0.68;;
39020;SDS011;25188;51.958;5.842;2023-05-20T12:47:30;2.13;;;0.60;;
39020;SDS011;25188;51.958;5.842;2023-05-20T12:49:56;1.88;;;0.50;;
39020;SDS011;25188;51.958;5.842;2023-05-20T12:52:22;4.57;;;0.65;;
39020;SDS011;25188;51.958;5.842;2023-05-20T12:54:48;2.20;;;0.70;;
39020;SDS011;25188;51.958;5.842;2023-05-20T12:57:13;5.70;;;0.60;;
39020;SDS011;25188;51.958;5.842;2023-05-20T12:59:39;4.25;;;0.60;;
39020;SDS011;25188;51.958;5.842;2023-05-20T13:02:05;3.25;;;0.75;;
39020;SDS011;25188;51.958;5.842;2023-05-20T13:04:31;1.48;;;0.60;;
39020;SDS011;25188;51.958;5.842;2023-05-20T13:06:57;1.55;;;0.40;;
39020;SDS011;25188;51.958;5.842;2023-05-20T13:09:23;3.65;;;0.60;;
39020;SDS011;25188;51.958;5.842;2023-05-20T13:11:49;2.45;;;0.50;;
39020;SDS011;25188;51.958;5.842;2023-05-20T13:14:14;1.27;;;0.63;;
39020;SDS011;25188;51.958;5.842;2023-05-20T13:16:41;3.40;;;0.50;;
39020;SDS011;25188;51.958;5.842;2023-05-20T13:19:07;2.90;;;0.50;;
39020;SDS011;25188;51.958;5.842;2023-05-20T13:21:33;2.08;;;0.63;;
39020;SDS011;25188;51.958;5.842;2023-05-20T13:23:58;2.30;;;0.80;;
39020;SDS011;25188;51.958;5.842;2023-05-20T13:26:25;2.05;;;0.80;;
39020;SDS011;25188;51.958;5.842;2023-05-20T13:28:51;1.55;;;0.50;;
39020;SDS011;25188;51.958;5.842;2023-05-20T13:31:17;3.47;;;0.90;;
39020;SDS011;25188;51.958;5.842;2023-05-20T13:33:42;2.83;;;0.60;;
39020;SDS011;25188;51.958;5.842;2023-05-20T13:36:08;1.75;;;0.55;;
39020;SDS011;25188;51.958;5.842;2023-05-20T13:38:34;2.78;;;0.60;;
39020;SDS011;25188;51.958;5.842;2023-05-20T13:41:00;3.13;;;0.60;;
39020;SDS011;25188;51.958;5.842;2023-05-20T13:43:26;4.38;;;0.77;;
39020;SDS011;25188;51.958;5.842;2023-05-20T13:45:52;3.40;;;0.50;;
39020;SDS011;25188;51.958;5.842;2023-05-20T13:48:18;4.60;;;0.60;;
39020;SDS011;25188;51.958;5.842;2023-05-20T13:50:44;1.35;;;0.68;;
39020;SDS011;25188;51.958;5.842;2023-05-20T13:53:09;2.08;;;0.60;;
39020;SDS011;25188;51.958;5.842;2023-05-20T13:55:37;1.42;;;0.60;;
39020;SDS011;25188;51.958;5.842;2023-05-20T13:58:06;1.88;;;0.60;;
39020;SDS011;25188;51.958;5.842;2023-05-20T14:00:37;3.60;;;0.70;;
39020;SDS011;25188;51.958;5.842;2023-05-20T14:03:03;2.60;;;0.65;;
39020;SDS011;25188;51.958;5.842;2023-05-20T14:05:32;1.30;;;0.45;;
39020;SDS011;25188;51.958;5.842;2023-05-20T14:07:58;1.70;;;0.60;;
39020;SDS011;25188;51.958;5.842;2023-05-20T14:10:24;1.27;;;0.50;;
39020;SDS011;25188;51.958;5.842;2023-05-20T14:12:53;3.67;;;0.85;;
39020;SDS011;25188;51.958;5.842;2023-05-20T14:15:21;3.03;;;0.60;;
39020;SDS011;25188;51.958;5.842;2023-05-20T14:17:47;3.10;;;0.60;;
39020;SDS011;25188;51.958;5.842;2023-05-20T14:20:12;2.85;;;0.65;;
39020;SDS011;25188;51.958;5.842;2023-05-20T14:22:38;1.38;;;0.60;;
39020;SDS011;25188;51.958;5.842;2023-05-20T14:25:04;1.55;;;0.57;;
39020;SDS011;25188;51.958;5.842;2023-05-20T14:27:30;1.98;;;0.60;;
39020;SDS011;25188;51.958;5.842;2023-05-20T14:29:56;2.50;;;0.60;;
39020;SDS011;25188;51.958;5.842;2023-05-20T14:32:21;2.65;;;0.60;;
39020;SDS011;25188;51.958;5.842;2023-05-20T14:34:47;1.65;;;0.50;;
39020;SDS011;25188;51.958;5.842;2023-05-20T14:37:13;2.15;;;0.80;;
39020;SDS011;25188;51.958;5.842;2023-05-20T14:39:39;2.53;;;0.80;;
39020;SDS011;25188;51.958;5.842;2023-05-20T14:42:05;3.38;;;0.57;;
39020;SDS011;25188;51.958;5.842;2023-05-20T14:44:31;2.70;;;0.50;;
39020;SDS011;25188;51.958;5.842;2023-05-20T14:46:56;3.05;;;0.60;;
39020;SDS011;25188;51.958;5.842;2023-05-20T14:49:22;2.17;;;0.60;;
39020;SDS011;25188;51.958;5.842;2023-05-20T14:51:48;5.32;;;0.65;;
39020;SDS011;25188;51.958;5.842;2023-05-20T14:54:14;1.70;;;0.57;;
39020;SDS011;25188;51.958;5.842;2023-05-20T14:56:41;3.83;;;0.70;;
39020;SDS011;25188;51.958;5.842;2023-05-20T14:59:07;2.83;;;0.60;;
39020;SDS011;25188;51.958;5.842;2023-05-20T15:01:33;3.45;;;0.77;;
39020;SDS011;25188;51.958;5.842;2023-05-20T15:03:59;2.10;;;0.60;;
39020;SDS011;25188;51.958;5.842;2023-05-20T15:06:25;3.75;;;0.68;;